Terminal Aerodrome Forecast
Issued by NWS

Home | Current Version | Previous Version | Graphics & Text | Print | Product List | Glossary On
Versions: 1 2 3 4 5 6 7 8 9 10 11 12 13 14 15 16 17 18
726
FTUS43 KABR 232321
TAFPIR
TAF
KPIR 232321Z 2400/2424 05019G24KT P6SM OVC021
     FM240300 02017G24KT P6SM OVC015
     FM240600 02016KT P6SM OVC020
     FM241100 01016KT P6SM OVC040
     FM242000 35015KT P6SM SCT120=

USA.gov is the U.S. government's official web portal to all federal, state and local government web resources and services.